sensor_id;sensor_type;location;lat;lon;timestamp;temperature;humidity
15937;DHT22;9163;48.818;8.976;2023-07-29T00:00:14;16.60;99.90
15937;DHT22;9163;48.818;8.976;2023-07-29T00:02:42;16.60;99.90
15937;DHT22;9163;48.818;8.976;2023-07-29T00:05:10;16.60;99.90
15937;DHT22;9163;48.818;8.976;2023-07-29T00:07:37;16.60;99.90
15937;DHT22;9163;48.818;8.976;2023-07-29T00:10:05;16.50;99.90
15937;DHT22;9163;48.818;8.976;2023-07-29T00:12:33;16.50;99.90
15937;DHT22;9163;48.818;8.976;2023-07-29T00:15:01;16.60;99.90
15937;DHT22;9163;48.818;8.976;2023-07-29T00:17:29;16.60;99.90
15937;DHT22;9163;48.818;8.976;2023-07-29T00:19:56;16.60;99.90
15937;DHT22;9163;48.818;8.976;2023-07-29T00:22:23;16.60;99.90
15937;DHT22;9163;48.818;8.976;2023-07-29T00:24:52;16.60;99.90
15937;DHT22;9163;48.818;8.976;2023-07-29T00:27:20;16.60;99.90
15937;DHT22;9163;48.818;8.976;2023-07-29T00:29:48;16.70;99.90
15937;DHT22;9163;48.818;8.976;2023-07-29T00:32:16;16.60;99.90
15937;DHT22;9163;48.818;8.976;2023-07-29T00:34:44;16.70;99.90
15937;DHT22;9163;48.818;8.976;2023-07-29T00:37:11;16.70;99.90
15937;DHT22;9163;48.818;8.976;2023-07-29T00:39:38;16.70;99.90
15937;DHT22;9163;48.818;8.976;2023-07-29T00:42:06;16.70;99.90
15937;DHT22;9163;48.818;8.976;2023-07-29T00:44:33;16.70;99.90
15937;DHT22;9163;48.818;8.976;2023-07-29T00:47:02;16.60;99.90
15937;DHT22;9163;48.818;8.976;2023-07-29T00:49:31;16.60;99.90
15937;DHT22;9163;48.818;8.976;2023-07-29T00:51:59;16.60;99.90
15937;DHT22;9163;48.818;8.976;2023-07-29T00:54:26;16.60;99.90
15937;DHT22;9163;48.818;8.976;2023-07-29T00:56:53;16.60;99.90
15937;DHT22;9163;48.818;8.976;2023-07-29T00:59:21;16.60;99.90
15937;DHT22;9163;48.818;8.976;2023-07-29T01:01:49;16.60;99.90
15937;DHT22;9163;48.818;8.976;2023-07-29T01:04:16;16.60;99.90
15937;DHT22;9163;48.818;8.976;2023-07-29T01:06:53;16.60;99.90
15937;DHT22;9163;48.818;8.976;2023-07-29T01:09:25;16.60;99.90
15937;DHT22;9163;48.818;8.976;2023-07-29T01:12:01;16.60;99.90
15937;DHT22;9163;48.818;8.976;2023-07-29T01:14:36;16.60;99.90
15937;DHT22;9163;48.818;8.976;2023-07-29T01:17:08;16.60;99.90
15937;DHT22;9163;48.818;8.976;2023-07-29T01:19:48;16.60;99.90
15937;DHT22;9163;48.818;8.976;2023-07-29T01:22:21;16.60;99.90
15937;DHT22;9163;48.818;8.976;2023-07-29T01:24:52;16.60;99.90
15937;DHT22;9163;48.818;8.976;2023-07-29T01:27:19;16.60;99.90
15937;DHT22;9163;48.818;8.976;2023-07-29T01:29:46;16.60;99.90
15937;DHT22;9163;48.818;8.976;2023-07-29T01:32:17;16.60;99.90
15937;DHT22;9163;48.818;8.976;2023-07-29T01:34:48;16.60;99.90
15937;DHT22;9163;48.818;8.976;2023-07-29T01:37:21;16.60;99.90
15937;DHT22;9163;48.818;8.976;2023-07-29T01:39:51;16.60;99.90
15937;DHT22;9163;48.818;8.976;2023-07-29T01:42:20;16.60;99.90
15937;DHT22;9163;48.818;8.976;2023-07-29T01:44:48;16.60;99.90
15937;DHT22;9163;48.818;8.976;2023-07-29T01:47:15;16.60;99.90
15937;DHT22;9163;48.818;8.976;2023-07-29T01:49:42;16.60;99.90
15937;DHT22;9163;48.818;8.976;2023-07-29T01:52:10;16.60;99.90
15937;DHT22;9163;48.818;8.976;2023-07-29T01:54:37;16.60;99.90
15937;DHT22;9163;48.818;8.976;2023-07-29T01:57:05;16.60;99.90
15937;DHT22;9163;48.818;8.976;2023-07-29T01:59:33;16.60;99.90
15937;DHT22;9163;48.818;8.976;2023-07-29T02:02:00;16.60;99.90
15937;DHT22;9163;48.818;8.976;2023-07-29T02:04:28;16.60;99.90
15937;DHT22;9163;48.818;8.976;2023-07-29T02:06:55;16.50;99.90
15937;DHT22;9163;48.818;8.976;2023-07-29T02:09:22;16.50;99.90
15937;DHT22;9163;48.818;8.976;2023-07-29T02:11:51;16.50;99.90
15937;DHT22;9163;48.818;8.976;2023-07-29T02:14:20;16.60;99.90
15937;DHT22;9163;48.818;8.976;2023-07-29T02:16:47;16.50;99.90
15937;DHT22;9163;48.818;8.976;2023-07-29T02:19:15;16.50;99.90
15937;DHT22;9163;48.818;8.976;2023-07-29T02:21:42;16.50;99.90
15937;DHT22;9163;48.818;8.976;2023-07-29T02:24:09;16.50;99.90
15937;DHT22;9163;48.818;8.976;2023-07-29T02:26:36;16.50;99.90
15937;DHT22;9163;48.818;8.976;2023-07-29T02:29:04;16.50;99.90
15937;DHT22;9163;48.818;8.976;2023-07-29T02:31:33;16.40;99.90
15937;DHT22;9163;48.818;8.976;2023-07-29T02:34:02;16.40;99.90
15937;DHT22;9163;48.818;8.976;2023-07-29T02:36:30;16.40;99.90
15937;DHT22;9163;48.818;8.976;2023-07-29T02:38:57;16.40;99.90
15937;DHT22;9163;48.818;8.976;2023-07-29T02:41:24;16.40;99.90
15937;DHT22;9163;48.818;8.976;2023-07-29T02:43:51;16.40;99.90
15937;DHT22;9163;48.818;8.976;2023-07-29T02:46:18;16.40;99.90
15937;DHT22;9163;48.818;8.976;2023-07-29T02:48:47;16.50;99.90
15937;DHT22;9163;48.818;8.976;2023-07-29T02:51:14;16.50;99.90
15937;DHT22;9163;48.818;8.976;2023-07-29T02:53:42;16.50;99.90
15937;DHT22;9163;48.818;8.976;2023-07-29T02:56:09;16.50;99.90
15937;DHT22;9163;48.818;8.976;2023-07-29T02:58:37;16.50;99.90
15937;DHT22;9163;48.818;8.976;2023-07-29T03:01:06;16.50;99.90
15937;DHT22;9163;48.818;8.976;2023-07-29T03:03:33;16.60;99.90
15937;DHT22;9163;48.818;8.976;2023-07-29T03:06:03;16.60;99.90
15937;DHT22;9163;48.818;8.976;2023-07-29T03:08:30;16.50;99.90
15937;DHT22;9163;48.818;8.976;2023-07-29T03:10:58;16.50;99.90
15937;DHT22;9163;48.818;8.976;2023-07-29T03:13:25;16.50;99.90
15937;DHT22;9163;48.818;8.976;2023-07-29T03:15:53;16.50;99.90
15937;DHT22;9163;48.818;8.976;2023-07-29T03:18:20;16.50;99.90
15937;DHT22;9163;48.818;8.976;2023-07-29T03:20:49;16.50;99.90
15937;DHT22;9163;48.818;8.976;2023-07-29T03:23:17;16.50;99.90
15937;DHT22;9163;48.818;8.976;2023-07-29T03:25:48;16.50;99.90
15937;DHT22;9163;48.818;8.976;2023-07-29T03:28:16;16.40;99.90
15937;DHT22;9163;48.818;8.976;2023-07-29T03:30:43;16.40;99.90
15937;DHT22;9163;48.818;8.976;2023-07-29T03:33:11;16.40;99.90
15937;DHT22;9163;48.818;8.976;2023-07-29T03:35:38;16.40;99.90
15937;DHT22;9163;48.818;8.976;2023-07-29T03:38:05;16.40;99.90
15937;DHT22;9163;48.818;8.976;2023-07-29T03:40:34;16.40;99.90
15937;DHT22;9163;48.818;8.976;2023-07-29T03:43:01;16.40;99.90
15937;DHT22;9163;48.818;8.976;2023-07-29T03:45:28;16.50;99.90
15937;DHT22;9163;48.818;8.976;2023-07-29T03:47:55;16.50;99.90
15937;DHT22;9163;48.818;8.976;2023-07-29T03:50:23;16.50;99.90
15937;DHT22;9163;48.818;8.976;2023-07-29T03:52:50;16.50;99.90
15937;DHT22;9163;48.818;8.976;2023-07-29T03:55:18;16.50;99.90
15937;DHT22;9163;48.818;8.976;2023-07-29T03:57:46;16.50;99.90
15937;DHT22;9163;48.818;8.976;2023-07-29T04:00:14;16.50;99.90
15937;DHT22;9163;48.818;8.976;2023-07-29T04:02:42;16.50;99.90
15937;DHT22;9163;48.818;8.976;2023-07-29T04:05:11;16.50;99.90
15937;DHT22;9163;48.818;8.976;2023-07-29T04:07:38;16.50;99.90
15937;DHT22;9163;48.818;8.976;2023-07-29T04:10:07;16.50;99.90
15937;DHT22;9163;48.818;8.976;2023-07-29T04:12:34;16.40;99.90
15937;DHT22;9163;48.818;8.976;2023-07-29T04:15:03;16.40;99.90
15937;DHT22;9163;48.818;8.976;2023-07-29T04:17:31;16.40;99.90
15937;DHT22;9163;48.818;8.976;2023-07-29T04:19:58;16.40;99.90
15937;DHT22;9163;48.818;8.976;2023-07-29T04:22:25;16.40;99.90
15937;DHT22;9163;48.818;8.976;2023-07-29T04:24:52;16.40;99.90
15937;DHT22;9163;48.818;8.976;2023-07-29T04:27:20;16.30;99.90
15937;DHT22;9163;48.818;8.976;2023-07-29T04:29:47;16.30;99.90
15937;DHT22;9163;48.818;8.976;2023-07-29T04:32:16;16.30;99.90
15937;DHT22;9163;48.818;8.976;2023-07-29T04:34:43;16.30;99.90
15937;DHT22;9163;48.818;8.976;2023-07-29T04:37:10;16.20;99.90
15937;DHT22;9163;48.818;8.976;2023-07-29T04:39:37;16.30;99.90
15937;DHT22;9163;48.818;8.976;2023-07-29T04:42:05;16.30;99.90
15937;DHT22;9163;48.818;8.976;2023-07-29T04:44:32;16.30;99.90
15937;DHT22;9163;48.818;8.976;2023-07-29T04:47:00;16.30;99.90
15937;DHT22;9163;48.818;8.976;2023-07-29T04:49:28;16.30;99.90
15937;DHT22;9163;48.818;8.976;2023-07-29T04:51:56;16.30;99.90
15937;DHT22;9163;48.818;8.976;2023-07-29T04:54:23;16.30;99.90
15937;DHT22;9163;48.818;8.976;2023-07-29T04:56:50;16.30;99.90
15937;DHT22;9163;48.818;8.976;2023-07-29T04:59:17;16.30;99.90
15937;DHT22;9163;48.818;8.976;2023-07-29T05:01:44;16.30;99.90
15937;DHT22;9163;48.818;8.976;2023-07-29T05:04:12;16.40;99.90
15937;DHT22;9163;48.818;8.976;2023-07-29T05:06:40;16.40;99.90
15937;DHT22;9163;48.818;8.976;2023-07-29T05:09:14;16.40;99.90
15937;DHT22;9163;48.818;8.976;2023-07-29T05:11:42;16.40;99.90
15937;DHT22;9163;48.818;8.976;2023-07-29T05:14:12;16.40;99.90
15937;DHT22;9163;48.818;8.976;2023-07-29T05:16:39;16.40;99.90
15937;DHT22;9163;48.818;8.976;2023-07-29T05:19:06;16.50;99.90
15937;DHT22;9163;48.818;8.976;2023-07-29T05:21:34;16.50;99.90
15937;DHT22;9163;48.818;8.976;2023-07-29T05:24:03;16.60;99.90
15937;DHT22;9163;48.818;8.976;2023-07-29T05:26:30;16.60;99.90
15937;DHT22;9163;48.818;8.976;2023-07-29T05:28:57;16.60;99.90
15937;DHT22;9163;48.818;8.976;2023-07-29T05:31:24;16.70;99.90
15937;DHT22;9163;48.818;8.976;2023-07-29T05:33:52;16.70;99.90
15937;DHT22;9163;48.818;8.976;2023-07-29T05:36:19;16.70;99.90
15937;DHT22;9163;48.818;8.976;2023-07-29T05:38:46;16.80;99.90
15937;DHT22;9163;48.818;8.976;2023-07-29T05:41:15;16.80;99.90
15937;DHT22;9163;48.818;8.976;2023-07-29T05:43:42;16.80;99.90
15937;DHT22;9163;48.818;8.976;2023-07-29T05:46:09;16.90;99.90
15937;DHT22;9163;48.818;8.976;2023-07-29T05:48:37;17.00;99.90
15937;DHT22;9163;48.818;8.976;2023-07-29T05:51:04;17.10;99.90
15937;DHT22;9163;48.818;8.976;2023-07-29T05:53:32;17.10;99.90
15937;DHT22;9163;48.818;8.976;2023-07-29T05:55:59;17.20;99.90
15937;DHT22;9163;48.818;8.976;2023-07-29T05:58:28;17.20;99.90
15937;DHT22;9163;48.818;8.976;2023-07-29T06:00:57;17.30;99.90
15937;DHT22;9163;48.818;8.976;2023-07-29T06:03:24;17.40;99.90
15937;DHT22;9163;48.818;8.976;2023-07-29T06:05:51;17.40;99.90
15937;DHT22;9163;48.818;8.976;2023-07-29T06:08:18;17.40;99.90
15937;DHT22;9163;48.818;8.976;2023-07-29T06:10:46;17.50;99.90
15937;DHT22;9163;48.818;8.976;2023-07-29T06:13:13;17.50;99.90
15937;DHT22;9163;48.818;8.976;2023-07-29T06:15:42;17.50;99.90
15937;DHT22;9163;48.818;8.976;2023-07-29T06:18:09;17.60;99.90
15937;DHT22;9163;48.818;8.976;2023-07-29T06:20:36;17.60;99.90
15937;DHT22;9163;48.818;8.976;2023-07-29T06:23:04;17.60;99.90
15937;DHT22;9163;48.818;8.976;2023-07-29T06:25:31;17.70;99.90
15937;DHT22;9163;48.818;8.976;2023-07-29T06:27:58;17.80;99.90
15937;DHT22;9163;48.818;8.976;2023-07-29T06:30:25;17.70;99.90
15937;DHT22;9163;48.818;8.976;2023-07-29T06:32:54;17.80;99.90
15937;DHT22;9163;48.818;8.976;2023-07-29T06:35:21;17.80;99.90
15937;DHT22;9163;48.818;8.976;2023-07-29T06:37:49;17.80;99.90
15937;DHT22;9163;48.818;8.976;2023-07-29T06:40:16;17.90;99.90
15937;DHT22;9163;48.818;8.976;2023-07-29T06:42:44;17.90;99.90
15937;DHT22;9163;48.818;8.976;2023-07-29T06:45:11;17.90;99.90
15937;DHT22;9163;48.818;8.976;2023-07-29T06:47:39;17.90;99.90
15937;DHT22;9163;48.818;8.976;2023-07-29T06:50:08;18.00;99.90
15937;DHT22;9163;48.818;8.976;2023-07-29T06:52:35;18.00;99.90
15937;DHT22;9163;48.818;8.976;2023-07-29T06:55:04;18.00;99.90
15937;DHT22;9163;48.818;8.976;2023-07-29T06:57:31;18.00;99.90
15937;DHT22;9163;48.818;8.976;2023-07-29T06:59:59;18.00;99.90
15937;DHT22;9163;48.818;8.976;2023-07-29T07:02:26;18.00;99.90
15937;DHT22;9163;48.818;8.976;2023-07-29T07:04:53;18.10;99.90
15937;DHT22;9163;48.818;8.976;2023-07-29T07:07:22;18.10;99.90
15937;DHT22;9163;48.818;8.976;2023-07-29T07:09:49;18.10;99.90
15937;DHT22;9163;48.818;8.976;2023-07-29T07:12:16;18.10;99.90
15937;DHT22;9163;48.818;8.976;2023-07-29T07:14:44;18.10;99.90
15937;DHT22;9163;48.818;8.976;2023-07-29T07:17:11;18.10;99.90
15937;DHT22;9163;48.818;8.976;2023-07-29T07:19:38;18.10;99.90
15937;DHT22;9163;48.818;8.976;2023-07-29T07:22:06;18.20;99.90
15937;DHT22;9163;48.818;8.976;2023-07-29T07:24:35;18.20;99.90
15937;DHT22;9163;48.818;8.976;2023-07-29T07:27:02;18.30;99.90
15937;DHT22;9163;48.818;8.976;2023-07-29T07:29:30;18.40;99.90
15937;DHT22;9163;48.818;8.976;2023-07-29T07:31:58;18.50;99.90
15937;DHT22;9163;48.818;8.976;2023-07-29T07:34:26;18.60;99.90
15937;DHT22;9163;48.818;8.976;2023-07-29T07:36:53;18.50;99.90
15937;DHT22;9163;48.818;8.976;2023-07-29T07:39:20;18.60;99.90
15937;DHT22;9163;48.818;8.976;2023-07-29T07:41:49;18.60;99.90
15937;DHT22;9163;48.818;8.976;2023-07-29T07:44:16;18.60;99.90
15937;DHT22;9163;48.818;8.976;2023-07-29T07:46:45;18.70;99.90
15937;DHT22;9163;48.818;8.976;2023-07-29T07:49:12;18.80;99.90
15937;DHT22;9163;48.818;8.976;2023-07-29T07:51:40;19.00;99.90
15937;DHT22;9163;48.818;8.976;2023-07-29T07:54:07;19.30;99.90
15937;DHT22;9163;48.818;8.976;2023-07-29T07:56:34;19.50;99.90
15937;DHT22;9163;48.818;8.976;2023-07-29T07:59:03;19.60;99.90
15937;DHT22;9163;48.818;8.976;2023-07-29T08:01:34;19.70;99.90
15937;DHT22;9163;48.818;8.976;2023-07-29T08:04:01;19.90;99.90
15937;DHT22;9163;48.818;8.976;2023-07-29T08:06:29;20.10;99.90
15937;DHT22;9163;48.818;8.976;2023-07-29T08:08:56;20.30;99.90
15937;DHT22;9163;48.818;8.976;2023-07-29T08:11:24;20.30;99.90
15937;DHT22;9163;48.818;8.976;2023-07-29T08:13:51;20.20;99.90
15937;DHT22;9163;48.818;8.976;2023-07-29T08:16:20;20.10;99.90
15937;DHT22;9163;48.818;8.976;2023-07-29T08:18:47;20.10;99.90
15937;DHT22;9163;48.818;8.976;2023-07-29T08:21:14;20.00;99.90
15937;DHT22;9163;48.818;8.976;2023-07-29T08:23:41;20.00;99.90
15937;DHT22;9163;48.818;8.976;2023-07-29T08:26:09;19.80;99.90
15937;DHT22;9163;48.818;8.976;2023-07-29T08:28:37;19.90;99.90
15937;DHT22;9163;48.818;8.976;2023-07-29T08:31:05;20.00;99.90
15937;DHT22;9163;48.818;8.976;2023-07-29T08:33:34;20.30;99.90
15937;DHT22;9163;48.818;8.976;2023-07-29T08:36:01;20.30;99.90
15937;DHT22;9163;48.818;8.976;2023-07-29T08:38:28;20.70;99.90
15937;DHT22;9163;48.818;8.976;2023-07-29T08:40:59;20.90;99.90
15937;DHT22;9163;48.818;8.976;2023-07-29T08:43:30;21.40;99.90
15937;DHT22;9163;48.818;8.976;2023-07-29T08:45:58;21.80;99.90
15937;DHT22;9163;48.818;8.976;2023-07-29T08:48:33;22.20;99.90
15937;DHT22;9163;48.818;8.976;2023-07-29T08:51:05;22.20;99.90
15937;DHT22;9163;48.818;8.976;2023-07-29T08:53:35;22.00;99.90
15937;DHT22;9163;48.818;8.976;2023-07-29T08:56:03;21.60;99.90
15937;DHT22;9163;48.818;8.976;2023-07-29T08:58:31;21.70;99.90
15937;DHT22;9163;48.818;8.976;2023-07-29T09:00:59;21.70;99.90
15937;DHT22;9163;48.818;8.976;2023-07-29T09:03:26;21.70;99.90
15937;DHT22;9163;48.818;8.976;2023-07-29T09:05:55;22.10;99.90
15937;DHT22;9163;48.818;8.976;2023-07-29T09:08:24;22.40;99.90
15937;DHT22;9163;48.818;8.976;2023-07-29T09:10:53;22.90;99.90
15937;DHT22;9163;48.818;8.976;2023-07-29T09:13:20;22.90;99.90
15937;DHT22;9163;48.818;8.976;2023-07-29T09:15:48;23.20;99.90
15937;DHT22;9163;48.818;8.976;2023-07-29T09:18:16;23.30;99.90
15937;DHT22;9163;48.818;8.976;2023-07-29T09:20:46;23.20;99.90
15937;DHT22;9163;48.818;8.976;2023-07-29T09:23:14;23.50;99.90
15937;DHT22;9163;48.818;8.976;2023-07-29T09:25:46;23.70;99.90
15937;DHT22;9163;48.818;8.976;2023-07-29T09:28:15;23.40;99.90
15937;DHT22;9163;48.818;8.976;2023-07-29T09:30:46;23.20;99.90
15937;DHT22;9163;48.818;8.976;2023-07-29T09:33:13;23.10;99.90
15937;DHT22;9163;48.818;8.976;2023-07-29T09:35:40;23.30;99.90
15937;DHT22;9163;48.818;8.976;2023-07-29T09:38:08;23.50;99.90
15937;DHT22;9163;48.818;8.976;2023-07-29T09:40:35;23.00;99.90
15937;DHT22;9163;48.818;8.976;2023-07-29T09:43:06;22.50;99.90
15937;DHT22;9163;48.818;8.976;2023-07-29T09:45:34;22.60;99.90
15937;DHT22;9163;48.818;8.976;2023-07-29T09:48:03;22.50;99.90
15937;DHT22;9163;48.818;8.976;2023-07-29T09:50:35;22.70;99.90
15937;DHT22;9163;48.818;8.976;2023-07-29T09:53:02;22.70;99.90
15937;DHT22;9163;48.818;8.976;2023-07-29T09:55:33;22.80;99.90
15937;DHT22;9163;48.818;8.976;2023-07-29T09:58:01;22.80;99.90
15937;DHT22;9163;48.818;8.976;2023-07-29T10:00:34;22.90;99.90
15937;DHT22;9163;48.818;8.976;2023-07-29T10:03:04;23.10;99.90
15937;DHT22;9163;48.818;8.976;2023-07-29T10:05:32;23.70;99.90
15937;DHT22;9163;48.818;8.976;2023-07-29T10:08:01;23.90;99.90
15937;DHT22;9163;48.818;8.976;2023-07-29T10:10:29;23.80;99.90
15937;DHT22;9163;48.818;8.976;2023-07-29T10:12:57;23.60;99.90
15937;DHT22;9163;48.818;8.976;2023-07-29T10:15:25;23.30;99.90
15937;DHT22;9163;48.818;8.976;2023-07-29T10:17:54;23.00;99.90
15937;DHT22;9163;48.818;8.976;2023-07-29T10:20:22;22.90;99.90
15937;DHT22;9163;48.818;8.976;2023-07-29T10:22:51;22.90;99.90
15937;DHT22;9163;48.818;8.976;2023-07-29T10:25:21;22.80;99.90
15937;DHT22;9163;48.818;8.976;2023-07-29T10:27:52;22.90;99.90
15937;DHT22;9163;48.818;8.976;2023-07-29T10:30:20;23.00;99.90
15937;DHT22;9163;48.818;8.976;2023-07-29T10:32:49;23.10;99.90
15937;DHT22;9163;48.818;8.976;2023-07-29T10:35:18;23.00;99.90
15937;DHT22;9163;48.818;8.976;2023-07-29T10:37:46;23.50;99.90
15937;DHT22;9163;48.818;8.976;2023-07-29T10:40:16;23.70;99.90
15937;DHT22;9163;48.818;8.976;2023-07-29T10:43:00;24.20;99.90
15937;DHT22;9163;48.818;8.976;2023-07-29T10:45:36;24.50;90.00
15937;DHT22;9163;48.818;8.976;2023-07-29T10:48:06;24.20;99.90
15937;DHT22;9163;48.818;8.976;2023-07-29T10:50:35;24.50;90.80
15937;DHT22;9163;48.818;8.976;2023-07-29T10:53:03;24.40;80.80
15937;DHT22;9163;48.818;8.976;2023-07-29T10:55:33;24.40;90.50
15937;DHT22;9163;48.818;8.976;2023-07-29T10:58:12;24.80;71.70
15937;DHT22;9163;48.818;8.976;2023-07-29T11:00:42;24.50;57.60
15937;DHT22;9163;48.818;8.976;2023-07-29T11:03:11;24.30;71.80
15937;DHT22;9163;48.818;8.976;2023-07-29T11:05:49;24.60;72.10
15937;DHT22;9163;48.818;8.976;2023-07-29T11:08:21;24.70;76.70
15937;DHT22;9163;48.818;8.976;2023-07-29T11:11:00;24.60;41.50
15937;DHT22;9163;48.818;8.976;2023-07-29T11:13:28;23.50;72.80
15937;DHT22;9163;48.818;8.976;2023-07-29T11:15:56;23.60;93.90
15937;DHT22;9163;48.818;8.976;2023-07-29T11:18:27;23.50;80.20
15937;DHT22;9163;48.818;8.976;2023-07-29T11:20:57;23.20;99.90
15937;DHT22;9163;48.818;8.976;2023-07-29T11:23:30;23.60;99.90
15937;DHT22;9163;48.818;8.976;2023-07-29T11:25:57;23.40;79.00
15937;DHT22;9163;48.818;8.976;2023-07-29T11:28:25;23.60;83.40
15937;DHT22;9163;48.818;8.976;2023-07-29T11:30:54;24.10;66.50
15937;DHT22;9163;48.818;8.976;2023-07-29T11:33:23;23.70;46.90
15937;DHT22;9163;48.818;8.976;2023-07-29T11:35:51;24.40;59.90
15937;DHT22;9163;48.818;8.976;2023-07-29T11:38:21;24.60;38.70
15937;DHT22;9163;48.818;8.976;2023-07-29T11:40:59;25.40;32.10
15937;DHT22;9163;48.818;8.976;2023-07-29T11:43:28;25.90;27.10
15937;DHT22;9163;48.818;8.976;2023-07-29T11:45:56;25.60;11.70
15937;DHT22;9163;48.818;8.976;2023-07-29T11:48:33;25.00;10.00
15937;DHT22;9163;48.818;8.976;2023-07-29T11:51:00;25.30;9.80
15937;DHT22;9163;48.818;8.976;2023-07-29T11:53:30;25.40;8.80
15937;DHT22;9163;48.818;8.976;2023-07-29T11:55:58;25.30;3.60
15937;DHT22;9163;48.818;8.976;2023-07-29T11:58:26;25.40;4.90
15937;DHT22;9163;48.818;8.976;2023-07-29T12:00:53;25.30;3.30
15937;DHT22;9163;48.818;8.976;2023-07-29T12:03:20;24.80;1.00
15937;DHT22;9163;48.818;8.976;2023-07-29T12:05:49;24.90;5.80
15937;DHT22;9163;48.818;8.976;2023-07-29T12:08:16;24.90;1.00
15937;DHT22;9163;48.818;8.976;2023-07-29T12:10:45;25.20;1.00
15937;DHT22;9163;48.818;8.976;2023-07-29T12:13:13;24.90;1.00
15937;DHT22;9163;48.818;8.976;2023-07-29T12:15:40;24.90;1.00
15937;DHT22;9163;48.818;8.976;2023-07-29T12:18:07;25.20;1.00
15937;DHT22;9163;48.818;8.976;2023-07-29T12:20:35;25.70;1.00
15937;DHT22;9163;48.818;8.976;2023-07-29T12:23:03;25.40;1.00
15937;DHT22;9163;48.818;8.976;2023-07-29T12:25:32;25.50;1.00
15937;DHT22;9163;48.818;8.976;2023-07-29T12:28:04;25.40;1.00
15937;DHT22;9163;48.818;8.976;2023-07-29T12:30:32;25.60;1.00
15937;DHT22;9163;48.818;8.976;2023-07-29T12:33:00;25.60;1.00
15937;DHT22;9163;48.818;8.976;2023-07-29T12:35:37;25.90;1.00
15937;DHT22;9163;48.818;8.976;2023-07-29T12:38:06;25.80;1.00
15937;DHT22;9163;48.818;8.976;2023-07-29T12:40:37;25.70;1.00
15937;DHT22;9163;48.818;8.976;2023-07-29T12:43:06;25.90;1.00
15937;DHT22;9163;48.818;8.976;2023-07-29T12:45:35;25.80;1.00
15937;DHT22;9163;48.818;8.976;2023-07-29T12:48:05;25.90;1.00
15937;DHT22;9163;48.818;8.976;2023-07-29T12:50:32;25.80;1.00
15937;DHT22;9163;48.818;8.976;2023-07-29T12:53:00;25.70;1.00
15937;DHT22;9163;48.818;8.976;2023-07-29T12:55:27;25.80;1.00
15937;DHT22;9163;48.818;8.976;2023-07-29T12:57:54;25.80;1.00
15937;DHT22;9163;48.818;8.976;2023-07-29T13:00:23;25.70;1.00
15937;DHT22;9163;48.818;8.976;2023-07-29T13:02:50;26.20;1.00
15937;DHT22;9163;48.818;8.976;2023-07-29T13:05:17;26.50;1.00
15937;DHT22;9163;48.818;8.976;2023-07-29T13:07:45;26.60;1.00
15937;DHT22;9163;48.818;8.976;2023-07-29T13:10:12;26.90;1.00
15937;DHT22;9163;48.818;8.976;2023-07-29T13:12:39;27.20;1.00
15937;DHT22;9163;48.818;8.976;2023-07-29T13:15:07;27.20;1.00
15937;DHT22;9163;48.818;8.976;2023-07-29T13:17:36;27.20;1.00
15937;DHT22;9163;48.818;8.976;2023-07-29T13:20:06;26.70;1.00
15937;DHT22;9163;48.818;8.976;2023-07-29T13:22:34;26.60;1.00
15937;DHT22;9163;48.818;8.976;2023-07-29T13:25:01;26.50;1.00
15937;DHT22;9163;48.818;8.976;2023-07-29T13:27:28;26.30;1.00
15937;DHT22;9163;48.818;8.976;2023-07-29T13:29:56;26.10;1.00
15937;DHT22;9163;48.818;8.976;2023-07-29T13:32:23;25.80;1.00
15937;DHT22;9163;48.818;8.976;2023-07-29T13:34:51;25.00;1.00
15937;DHT22;9163;48.818;8.976;2023-07-29T13:37:19;25.00;1.00
15937;DHT22;9163;48.818;8.976;2023-07-29T13:39:46;24.90;1.00
15937;DHT22;9163;48.818;8.976;2023-07-29T13:42:13;24.90;1.00
15937;DHT22;9163;48.818;8.976;2023-07-29T13:44:40;25.00;1.00
15937;DHT22;9163;48.818;8.976;2023-07-29T13:47:08;25.10;1.00
15937;DHT22;9163;48.818;8.976;2023-07-29T13:49:35;25.10;1.00
15937;DHT22;9163;48.818;8.976;2023-07-29T13:52:04;25.20;1.00
15937;DHT22;9163;48.818;8.976;2023-07-29T13:54:31;25.40;1.00
15937;DHT22;9163;48.818;8.976;2023-07-29T13:56:59;25.80;1.00
15937;DHT22;9163;48.818;8.976;2023-07-29T13:59:26;26.10;1.00
15937;DHT22;9163;48.818;8.976;2023-07-29T14:01:53;26.30;1.00
15937;DHT22;9163;48.818;8.976;2023-07-29T14:04:20;26.40;1.00
15937;DHT22;9163;48.818;8.976;2023-07-29T14:06:48;26.40;1.00
15937;DHT22;9163;48.818;8.976;2023-07-29T14:09:16;27.10;1.00
15937;DHT22;9163;48.818;8.976;2023-07-29T14:11:44;26.60;1.00
15937;DHT22;9163;48.818;8.976;2023-07-29T14:14:11;26.70;1.00
15937;DHT22;9163;48.818;8.976;2023-07-29T14:16:38;26.70;1.00
15937;DHT22;9163;48.818;8.976;2023-07-29T14:19:05;26.80;1.00
15937;DHT22;9163;48.818;8.976;2023-07-29T14:21:32;26.80;1.00
15937;DHT22;9163;48.818;8.976;2023-07-29T14:24:00;26.00;1.00
15937;DHT22;9163;48.818;8.976;2023-07-29T14:26:28;25.50;1.00
15937;DHT22;9163;48.818;8.976;2023-07-29T14:28:55;25.10;1.00
15937;DHT22;9163;48.818;8.976;2023-07-29T14:31:23;25.20;1.00
15937;DHT22;9163;48.818;8.976;2023-07-29T14:33:50;25.40;1.00
15937;DHT22;9163;48.818;8.976;2023-07-29T14:36:17;25.10;1.00
15937;DHT22;9163;48.818;8.976;2023-07-29T14:38:44;25.10;1.00
15937;DHT22;9163;48.818;8.976;2023-07-29T14:41:12;25.30;1.00
15937;DHT22;9163;48.818;8.976;2023-07-29T14:43:40;25.30;1.00
15937;DHT22;9163;48.818;8.976;2023-07-29T14:46:08;25.40;1.00
15937;DHT22;9163;48.818;8.976;2023-07-29T14:48:35;25.90;1.00
15937;DHT22;9163;48.818;8.976;2023-07-29T14:51:02;25.70;1.00
15937;DHT22;9163;48.818;8.976;2023-07-29T14:53:30;26.10;1.00
15937;DHT22;9163;48.818;8.976;2023-07-29T14:55:57;25.80;1.00
15937;DHT22;9163;48.818;8.976;2023-07-29T14:58:24;25.70;1.00
15937;DHT22;9163;48.818;8.976;2023-07-29T15:00:53;25.50;1.00
15937;DHT22;9163;48.818;8.976;2023-07-29T15:03:20;25.50;1.00
15937;DHT22;9163;48.818;8.976;2023-07-29T15:05:48;25.30;1.00
15937;DHT22;9163;48.818;8.976;2023-07-29T15:08:16;25.80;1.00
15937;DHT22;9163;48.818;8.976;2023-07-29T15:10:45;26.60;1.00
15937;DHT22;9163;48.818;8.976;2023-07-29T15:13:12;26.70;1.00
15937;DHT22;9163;48.818;8.976;2023-07-29T15:15:40;27.20;1.00
15937;DHT22;9163;48.818;8.976;2023-07-29T15:18:09;27.00;1.00
15937;DHT22;9163;48.818;8.976;2023-07-29T15:20:36;26.80;1.00
15937;DHT22;9163;48.818;8.976;2023-07-29T15:23:04;26.60;1.00
15937;DHT22;9163;48.818;8.976;2023-07-29T15:25:31;26.70;1.00
15937;DHT22;9163;48.818;8.976;2023-07-29T15:27:58;26.60;1.00
15937;DHT22;9163;48.818;8.976;2023-07-29T15:30:26;26.40;1.00
15937;DHT22;9163;48.818;8.976;2023-07-29T15:32:53;26.50;1.00
15937;DHT22;9163;48.818;8.976;2023-07-29T15:35:22;26.40;1.00
15937;DHT22;9163;48.818;8.976;2023-07-29T15:37:50;26.10;1.00
15937;DHT22;9163;48.818;8.976;2023-07-29T15:40:17;26.00;1.00
15937;DHT22;9163;48.818;8.976;2023-07-29T15:42:45;25.70;1.00
15937;DHT22;9163;48.818;8.976;2023-07-29T15:45:12;25.80;1.00
15937;DHT22;9163;48.818;8.976;2023-07-29T15:47:40;25.80;1.00
15937;DHT22;9163;48.818;8.976;2023-07-29T15:50:07;25.70;1.00
15937;DHT22;9163;48.818;8.976;2023-07-29T15:52:36;25.70;1.00
15937;DHT22;9163;48.818;8.976;2023-07-29T15:55:08;25.70;1.00